Veidnes — LLSD — position and weather

sailwx.info

Track history (hours):
 
Tides and Currents Weather Stations Pressure Air Temp Water Temp Dewpoint Dewpoint Depression Visibility Wind Speed Wind Dir Waves Ship Positions

Veidnes

Last reported at 2018-Feb-24 06:30 UTC. Time now 2018-Feb-24 06:41 UTC.
Position N 68°14' E 014°32'.

Length 51 m; draft 5 m.

Type: Other ship. MMSI: 259237000.

Date/timePositionNaut miles runAvg speedWind from/ knotsBaromVisibWave heightAir tempDewpointWater temp
2018-Feb-24 06:30N 68°14' E 014°32'0 0.0
2018-Feb-24 06:00N 68°14' E 014°32'0 0.0
2018-Feb-24 05:30N 68°14' E 014°32'0 0.0
2018-Feb-24 05:00N 68°14' E 014°32'0 0.0
2018-Feb-24 04:30N 68°14' E 014°32'0 0.0
2018-Feb-24 04:00N 68°14' E 014°32'0 0.0
2018-Feb-24 03:30N 68°14' E 014°32'0 0.0
2018-Feb-24 03:00N 68°14' E 014°32'0 0.0
2018-Feb-24 02:30N 68°14' E 014°32'0 0.0
2018-Feb-24 02:00N 68°14' E 014°32'0 0.0
2018-Feb-24 01:30N 68°14' E 014°32'0 0.0
2018-Feb-24 01:00N 68°14' E 014°32'0 0.0
2018-Feb-24 00:30N 68°14' E 014°32'0 0.0
2018-Feb-24 00:00N 68°14' E 014°32'0 0.0
2018-Feb-23 23:30N 68°14' E 014°32'0 0.0
2018-Feb-23 23:00N 68°14' E 014°32'0 0.0
2018-Feb-23 22:30N 68°14' E 014°32'0 0.0
2018-Feb-23 22:00N 68°14' E 014°32'0 0.0
2018-Feb-23 21:30N 68°14' E 014°32'0 0.0
2018-Feb-23 21:00N 68°14' E 014°32'0 0.0
2018-Feb-23 20:30N 68°14' E 014°32'0 0.0
2018-Feb-23 20:00N 68°14' E 014°32'0 0.0
2018-Feb-23 19:30N 68°14' E 014°32'0 0.0
2018-Feb-23 19:00N 68°14' E 014°32'0 0.0
2018-Feb-23 18:30N 68°14' E 014°32'0 0.0
2018-Feb-23 18:00N 68°14' E 014°32'0 0.0
2018-Feb-23 17:30N 68°14' E 014°32'0 0.0
2018-Feb-23 17:00N 68°14' E 014°32'0 0.0
2018-Feb-23 16:30N 68°14' E 014°32'0 0.0
2018-Feb-23 15:57N 68°14' E 014°32'0 0.0
2018-Feb-23 15:30N 68°14' E 014°32'0 0.0
2018-Feb-23 14:59N 68°14' E 014°32'0 0.0
2018-Feb-23 14:29N 68°14' E 014°32'0 0.0
2018-Feb-23 14:00N 68°14' E 014°32'2 3.8
2018-Feb-23 13:30N 68°12' E 014°35'611.4
2018-Feb-23 12:59N 68°09' E 014°49'511.4
2018-Feb-23 12:30N 68°06' E 015°01'611.5
2018-Feb-23 12:00N 68°03' E 015°14'3 6.3
2018-Feb-23 11:30N 68°01' E 015°20'0 0.0
2018-Feb-23 10:54N 68°01' E 015°20'0 0.0
2018-Feb-23 10:30N 68°01' E 015°20'0 0.0
2018-Feb-23 09:57N 68°01' E 015°20'0 0.0
2018-Feb-23 09:30N 68°01' E 015°20'0 0.0
2018-Feb-23 09:00N 68°01' E 015°20'0 0.0
2018-Feb-23 08:30N 68°01' E 015°20'0 0.0
2018-Feb-23 08:00N 68°01' E 015°20'0 0.0
2018-Feb-23 07:30N 68°01' E 015°20'0 0.0
2018-Feb-23 07:00N 68°01' E 015°20'0 0.0
2018-Feb-23 06:30N 68°01' E 015°20'0 0.0
2018-Feb-23 05:57N 68°01' E 015°20'0 0.0
2018-Feb-23 05:27N 68°01' E 015°20'0 0.0
2018-Feb-23 04:57N 68°01' E 015°20'0 0.0
2018-Feb-23 04:30N 68°01' E 015°20'0 0.0
2018-Feb-23 04:00N 68°01' E 015°20'0 0.0
2018-Feb-23 03:30N 68°01' E 015°20'0 0.0
2018-Feb-23 02:57N 68°01' E 015°20'0 0.0
2018-Feb-23 02:27N 68°01' E 015°20'0 0.0
2018-Feb-23 01:57N 68°01' E 015°20'0 0.0
2018-Feb-23 01:27N 68°01' E 015°20'0 0.0
2018-Feb-23 00:57N 68°01' E 015°20'0 0.0
2018-Feb-23 00:21N 68°01' E 015°20'0 0.0
2018-Feb-22 23:57N 68°01' E 015°20'0 0.0
2018-Feb-22 23:27N 68°01' E 015°20'0 0.0
2018-Feb-22 22:59N 68°01' E 015°20'0 0.0
2018-Feb-22 22:26N 68°01' E 015°20'0 0.0
2018-Feb-22 21:59N 68°01' E 015°20'0 0.0
2018-Feb-22 21:29N 68°01' E 015°20'0 0.0
2018-Feb-22 20:59N 68°01' E 015°20'0 0.0
2018-Feb-22 20:29N 68°01' E 015°20'0 0.0
2018-Feb-22 19:56N 68°01' E 015°20'0 0.0
2018-Feb-22 19:20N 68°01' E 015°20'0 0.0
2018-Feb-22 18:56N 68°01' E 015°20'1 3.3
2018-Feb-22 18:30N 67°60' E 015°21'4 8.0
2018-Feb-22 18:00N 67°57' E 015°29'1 1.3
2018-Feb-22 17:28N 67°56' E 015°30'0 0.0
2018-Feb-22 17:00N 67°56' E 015°30'0 0.3
2018-Feb-22 16:30N 67°57' E 015°31'0 0.3
2018-Feb-22 16:00N 67°57' E 015°30'4 7.0
2018-Feb-22 15:29N 67°58' E 015°22'3 5.3
2018-Feb-22 14:59N 68°01' E 015°20'0 0.0
2018-Feb-22 14:28N 68°01' E 015°20'0 0.0
2018-Feb-22 13:58N 68°01' E 015°20'0 0.0
2018-Feb-22 13:28N 68°01' E 015°20'0 0.0
2018-Feb-22 12:58N 68°01' E 015°20'0 0.0
2018-Feb-22 12:28N 68°01' E 015°20'0 0.0
2018-Feb-22 11:55N 68°01' E 015°20'0 0.0
2018-Feb-22 11:28N 68°01' E 015°20'0 0.0
2018-Feb-22 10:58N 68°01' E 015°20'0 0.0
2018-Feb-22 10:28N 68°01' E 015°20'0 0.0
2018-Feb-22 09:58N 68°01' E 015°20'0 0.0
2018-Feb-22 09:28N 68°01' E 015°20'0 0.0
2018-Feb-22 08:58N 68°01' E 015°20'0 0.0
2018-Feb-22 08:28N 68°01' E 015°20'0 0.0
2018-Feb-22 07:58N 68°01' E 015°20'0 0.0
2018-Feb-22 07:28N 68°01' E 015°20'0 0.0
2018-Feb-22 06:58N 68°01' E 015°20'0 0.0
2018-Feb-22 06:28N 68°01' E 015°20'0 0.0
2018-Feb-22 05:58N 68°01' E 015°20'0 0.0
2018-Feb-22 05:28N 68°01' E 015°20'0 0.0
2018-Feb-22 04:58N 68°01' E 015°20'0 0.0
2018-Feb-22 04:28N 68°01' E 015°20'0 0.0
2018-Feb-22 03:58N 68°01' E 015°20'0 0.0
2018-Feb-22 03:28N 68°01' E 015°20'0 0.0
2018-Feb-22 02:55N 68°01' E 015°20'0 0.0
2018-Feb-22 02:28N 68°01' E 015°20'0 0.0
2018-Feb-22 01:58N 68°01' E 015°20'0 0.0
2018-Feb-22 01:28N 68°01' E 015°20'0 0.0
2018-Feb-22 00:58N 68°01' E 015°20'0 0.0
2018-Feb-22 00:28N 68°01' E 015°20'0 0.0
2018-Feb-21 23:58N 68°01' E 015°20'0 0.0
2018-Feb-21 23:28N 68°01' E 015°20'0 0.0
2018-Feb-21 22:58N 68°01' E 015°20'0 0.0
2018-Feb-21 22:28N 68°01' E 015°20'0 0.0
2018-Feb-21 21:58N 68°01' E 015°20'0 0.0
2018-Feb-21 21:28N 68°01' E 015°20'0 0.0
2018-Feb-21 20:58N 68°01' E 015°20'0 0.0
2018-Feb-21 20:28N 68°01' E 015°20'0 0.0
2018-Feb-21 19:58N 68°01' E 015°20'0 0.0
2018-Feb-21 19:28N 68°01' E 015°20'0 0.0
2018-Feb-21 18:58N 68°01' E 015°20'0 0.4
2018-Feb-21 18:29N 68°01' E 015°20'4 8.6
2018-Feb-21 18:00N 67°57' E 015°25'2 4.5
2018-Feb-21 17:31N 67°56' E 015°30'0 0.0
2018-Feb-21 17:00N 67°56' E 015°30'0 0.0
2018-Feb-21 16:30N 67°56' E 015°30'0 0.5
2018-Feb-21 16:00N 67°57' E 015°30'3 5.8
2018-Feb-21 15:30N 67°58' E 015°23'3 6.7
2018-Feb-21 15:00N 68°01' E 015°20'0 0.0
2018-Feb-21 14:28N 68°01' E 015°20'0 0.0
2018-Feb-21 13:55N 68°01' E 015°20'0 0.0
2018-Feb-21 13:28N 68°01' E 015°20'0 0.0
2018-Feb-21 12:58N 68°01' E 015°20'0 0.0
2018-Feb-21 12:28N 68°01' E 015°20'0 0.0
2018-Feb-21 11:58N 68°01' E 015°20'0 0.0
2018-Feb-21 11:28N 68°01' E 015°20'0 0.0
2018-Feb-21 10:58N 68°01' E 015°20'0 0.0
2018-Feb-21 10:28N 68°01' E 015°20'0 0.0
2018-Feb-21 09:58N 68°01' E 015°20'0 0.0
2018-Feb-21 09:28N 68°01' E 015°20'0 0.0
2018-Feb-21 08:58N 68°01' E 015°20'0 0.0
2018-Feb-21 08:28N 68°01' E 015°20'0 0.0
2018-Feb-21 07:55N 68°01' E 015°20'0 0.0
2018-Feb-21 07:28N 68°01' E 015°20'0 0.0
2018-Feb-21 06:55N 68°01' E 015°20'0 0.0
2018-Feb-21 06:28N 68°01' E 015°20'0 0.0
2018-Feb-21 05:58N 68°01' E 015°20'0 0.0
2018-Feb-21 05:28N 68°01' E 015°20'0 0.0
2018-Feb-21 04:55N 68°01' E 015°20'0 0.0
2018-Feb-21 04:28N 68°01' E 015°20'0 0.0
2018-Feb-21 03:58N 68°01' E 015°20'0 0.0
2018-Feb-21 03:25N 68°01' E 015°20'0 0.0
2018-Feb-21 02:58N 68°01' E 015°20'0 0.0
2018-Feb-21 02:28N 68°01' E 015°20'0 0.0
2018-Feb-21 01:58N 68°01' E 015°20'0 0.0
2018-Feb-21 01:31N 68°01' E 015°20'0 0.0
2018-Feb-21 01:01N 68°01' E 015°20'0 0.0
2018-Feb-21 00:30N 68°01' E 015°20'0 0.0
2018-Feb-20 23:57N 68°01' E 015°20'0 0.0
2018-Feb-20 23:27N 68°01' E 015°20'0 0.0
2018-Feb-20 22:54N 68°01' E 015°20'0 0.0
2018-Feb-20 22:30N 68°01' E 015°20'0 0.0
2018-Feb-20 22:00N 68°01' E 015°20'0 0.0
2018-Feb-20 21:30N 68°01' E 015°20'0 0.0
2018-Feb-20 21:00N 68°01' E 015°20'0 0.0
2018-Feb-20 20:30N 68°01' E 015°20'0 0.0
2018-Feb-20 20:00N 68°01' E 015°20'0 0.0
2018-Feb-20 19:30N 68°01' E 015°20'0 0.0
2018-Feb-20 19:00N 68°01' E 015°20'2 3.9
2018-Feb-20 18:30N 67°59' E 015°21'4 7.8
2018-Feb-20 18:00N 67°57' E 015°29'0 0.8
2018-Feb-20 17:30N 67°56' E 015°30'0 0.0
2018-Feb-20 17:00N 67°56' E 015°30'0 0.0
2018-Feb-20 16:30N 67°56' E 015°30'0 0.4
2018-Feb-20 16:00N 67°57' E 015°30'3 5.0
2018-Feb-20 15:29N 67°56' E 015°24'3 6.0
2018-Feb-20 15:00N 67°55' E 015°17'2 4.1
2018-Feb-20 14:28N 67°54' E 015°11'0 0.0
2018-Feb-20 13:58N 67°54' E 015°11'0 0.0
2018-Feb-20 13:28N 67°54' E 015°11'0 0.4
2018-Feb-20 13:00N 67°54' E 015°12'4 7.8
2018-Feb-20 12:30N 67°57' E 015°20'4 8.7
2018-Feb-20 12:00N 68°01' E 015°20'0 0.2
2018-Feb-20 11:29N 68°01' E 015°20'0 0.0
2018-Feb-20 10:59N 68°01' E 015°20'0 0.0
2018-Feb-20 10:29N 68°01' E 015°20'0 0.0
2018-Feb-20 09:59N 68°01' E 015°20'0 0.0
2018-Feb-20 09:23N 68°01' E 015°20'0 0.0
2018-Feb-20 08:59N 68°01' E 015°20'0 0.0
2018-Feb-20 08:29N 68°01' E 015°20'0 0.0
2018-Feb-20 07:59N 68°01' E 015°20'0 0.0
2018-Feb-20 07:26N 68°01' E 015°20'0 0.0
2018-Feb-20 06:59N 68°01' E 015°20'0 0.0
2018-Feb-20 06:29N 68°01' E 015°20'0 0.0
2018-Feb-20 05:59N 68°01' E 015°20'0 0.0
2018-Feb-20 05:29N 68°01' E 015°20'0 0.0
2018-Feb-20 04:59N 68°01' E 015°20'0 0.0
2018-Feb-20 04:29N 68°01' E 015°20'0 0.0
2018-Feb-20 03:59N 68°01' E 015°20'0 0.0
2018-Feb-20 03:29N 68°01' E 015°20'0 0.0
2018-Feb-20 02:59N 68°01' E 015°20'0 0.0
2018-Feb-20 02:29N 68°01' E 015°20'0 0.0
2018-Feb-20 01:59N 68°01' E 015°20'0 0.0
2018-Feb-20 01:29N 68°01' E 015°20'0 0.0
2018-Feb-20 00:59N 68°01' E 015°20'0 0.0
2018-Feb-20 00:29N 68°01' E 015°20'0 0.0
2018-Feb-19 23:59N 68°01' E 015°20'0 0.0
2018-Feb-19 23:29N 68°01' E 015°20'0 0.0
2018-Feb-19 22:59N 68°01' E 015°20'0 0.0
2018-Feb-19 22:29N 68°01' E 015°20'0 0.0
2018-Feb-19 21:59N 68°01' E 015°20'0 0.0
2018-Feb-19 21:23N 68°01' E 015°20'0 0.0
2018-Feb-19 20:59N 68°01' E 015°20'0 0.0
2018-Feb-19 20:29N 68°01' E 015°20'0 0.0
2018-Feb-19 19:59N 68°01' E 015°20'0 0.0
2018-Feb-19 19:23N 68°01' E 015°20'0 0.0
2018-Feb-19 18:59N 68°01' E 015°20'0 0.0
2018-Feb-19 18:23N 68°01' E 015°20'1 2.4
2018-Feb-19 18:00N 68°00' E 015°21'4 8.0
2018-Feb-19 17:30N 67°57' E 015°27'1 2.7
2018-Feb-19 17:00N 67°56' E 015°30'0 0.0
2018-Feb-19 16:30N 67°56' E 015°30'0 0.0
2018-Feb-19 16:00N 67°56' E 015°30'3 5.6
2018-Feb-19 15:30N 67°57' E 015°23'3 6.8
2018-Feb-19 15:00N 68°00' E 015°20'1 1.3
2018-Feb-19 14:29N 68°01' E 015°20'0 0.0
2018-Feb-19 13:59N 68°01' E 015°20'0 0.0
2018-Feb-19 13:29N 68°01' E 015°20'0 0.0
2018-Feb-19 12:59N 68°01' E 015°20'0 0.0
2018-Feb-19 12:29N 68°01' E 015°20'0 0.0
2018-Feb-19 11:56N 68°01' E 015°20'0 0.0
2018-Feb-19 11:29N 68°01' E 015°20'0 0.0
2018-Feb-19 10:59N 68°01' E 015°20'0 0.0
2018-Feb-19 10:29N 68°01' E 015°20'0 0.0
2018-Feb-19 09:59N 68°01' E 015°20'0 0.0
2018-Feb-19 09:26N 68°01' E 015°20'0 0.0
2018-Feb-19 08:59N 68°01' E 015°20'0 0.0
2018-Feb-19 08:29N 68°01' E 015°20'0 0.0
2018-Feb-19 07:59N 68°01' E 015°20'0 0.0
2018-Feb-19 07:29N 68°01' E 015°20'0 0.0
2018-Feb-19 06:59N 68°01' E 015°20'0 0.0
2018-Feb-19 06:29N 68°01' E 015°20'0 0.0
2018-Feb-19 05:56N 68°01' E 015°20'0 0.0
2018-Feb-19 05:29N 68°01' E 015°20'0 0.0
2018-Feb-19 04:59N 68°01' E 015°20'0 0.0
2018-Feb-19 04:29N 68°01' E 015°20'0 0.0
2018-Feb-19 03:59N 68°01' E 015°20'0 0.0
2018-Feb-19 03:29N 68°01' E 015°20'0 0.0
2018-Feb-19 02:59N 68°01' E 015°20'0 0.0
2018-Feb-19 02:29N 68°01' E 015°20'0 0.0
2018-Feb-19 01:58N 68°01' E 015°20'0 0.0
2018-Feb-19 01:28N 68°01' E 015°20'0 0.0
2018-Feb-19 00:58N 68°01' E 015°20'0 0.0
2018-Feb-19 00:28N 68°01' E 015°20'0 0.0
2018-Feb-18 23:58N 68°01' E 015°20'0 0.0
2018-Feb-18 23:28N 68°01' E 015°20'0 0.0
2018-Feb-18 22:58N 68°01' E 015°20'0 0.0
2018-Feb-18 22:28N 68°01' E 015°20'0 0.0
2018-Feb-18 21:58N 68°01' E 015°20'0 0.0
2018-Feb-18 21:28N 68°01' E 015°20'0 0.0
2018-Feb-18 20:58N 68°01' E 015°20'0 0.0
2018-Feb-18 20:28N 68°01' E 015°20'0 0.0
2018-Feb-18 19:58N 68°01' E 015°20'0 0.0
2018-Feb-18 19:28N 68°01' E 015°20'0 0.0
2018-Feb-18 18:58N 68°01' E 015°20'0 0.0
2018-Feb-18 18:28N 68°01' E 015°20'2 3.7
2018-Feb-18 18:00N 67°59' E 015°21'4 7.3
2018-Feb-18 17:29N 67°57' E 015°28'1 1.5
2018-Feb-18 17:00N 67°56' E 015°30'0 0.0
2018-Feb-18 16:30N 67°56' E 015°30'0 0.0
2018-Feb-18 15:59N 67°56' E 015°30'3 5.2
2018-Feb-18 15:30N 67°57' E 015°24'3 6.7
2018-Feb-18 15:00N 68°00' E 015°21'1 1.3
2018-Feb-18 14:30N 68°01' E 015°20'0 0.0
2018-Feb-18 14:00N 68°01' E 015°20'0 0.0
2018-Feb-18 13:30N 68°01' E 015°20'0 0.0
2018-Feb-18 13:00N 68°01' E 015°20'0 0.0
2018-Feb-18 12:30N 68°01' E 015°20'0 0.0
2018-Feb-18 12:00N 68°01' E 015°20'0 0.0
2018-Feb-18 11:30N 68°01' E 015°20'0 0.0
2018-Feb-18 10:57N 68°01' E 015°20'0 0.0
2018-Feb-18 10:30N 68°01' E 015°20'0 0.0
2018-Feb-18 10:00N 68°01' E 015°20'0 0.0
2018-Feb-18 09:30N 68°01' E 015°20'0 0.0
2018-Feb-18 09:00N 68°01' E 015°20'0 0.0
2018-Feb-18 08:30N 68°01' E 015°20'0 0.0
2018-Feb-18 08:00N 68°01' E 015°20'0 0.0
2018-Feb-18 07:24N 68°01' E 015°20'0 0.0
2018-Feb-18 07:00N 68°01' E 015°20'0 0.0
2018-Feb-18 06:30N 68°01' E 015°20'0 0.0
2018-Feb-18 06:00N 68°01' E 015°20'0 0.0
2018-Feb-18 05:30N 68°01' E 015°20'0 0.0
2018-Feb-18 05:00N 68°01' E 015°20'0 0.0
2018-Feb-18 04:27N 68°01' E 015°20'0 0.0
2018-Feb-18 04:00N 68°01' E 015°20'0 0.0
2018-Feb-18 03:27N 68°01' E 015°20'0 0.0
2018-Feb-18 03:00N 68°01' E 015°20'0 0.0
2018-Feb-18 02:30N 68°01' E 015°20'0 0.0
2018-Feb-18 02:00N 68°01' E 015°20'0 0.0
2018-Feb-18 01:30N 68°01' E 015°20'0 0.0
2018-Feb-18 00:57N 68°01' E 015°20'0 0.0
2018-Feb-18 00:30N 68°01' E 015°20'0 0.0
2018-Feb-18 00:00N 68°01' E 015°20'0 0.0
2018-Feb-17 23:30N 68°01' E 015°20'0 0.0
2018-Feb-17 23:00N 68°01' E 015°20'0 0.0
2018-Feb-17 22:30N 68°01' E 015°20'0 0.0
2018-Feb-17 22:00N 68°01' E 015°20'0 0.0
2018-Feb-17 21:30N 68°01' E 015°20'0 0.0
2018-Feb-17 20:57N 68°01' E 015°20'0 0.0
2018-Feb-17 20:27N 68°01' E 015°20'0 0.0
2018-Feb-17 20:00N 68°01' E 015°20'0 0.0
2018-Feb-17 19:30N 68°01' E 015°20'0 0.0
2018-Feb-17 19:00N 68°01' E 015°20'0 0.0
2018-Feb-17 18:30N 68°01' E 015°20'0 0.0
2018-Feb-17 18:00N 68°01' E 015°20'0 0.0
2018-Feb-17 17:30N 68°01' E 015°20'0 0.0
2018-Feb-17 17:00N 68°01' E 015°20'0 0.0
2018-Feb-17 16:30N 68°01' E 015°20'0 0.0
2018-Feb-17 16:00N 68°01' E 015°20'0 0.0
2018-Feb-17 15:30N 68°01' E 015°20'0 0.0
2018-Feb-17 15:00N 68°01' E 015°20'0 0.0
2018-Feb-17 14:27N 68°01' E 015°20'0 0.0
2018-Feb-17 14:00N 68°01' E 015°20'0 0.0
2018-Feb-17 13:27N 68°01' E 015°20'0 0.0
2018-Feb-17 13:00N 68°01' E 015°20'0 0.0
2018-Feb-17 12:30N 68°01' E 015°20'0 0.0
2018-Feb-17 11:51N 68°01' E 015°20'0 0.0
2018-Feb-17 11:30N 68°01' E 015°20'0 0.0
2018-Feb-17 10:57N 68°01' E 015°20'0 0.0
2018-Feb-17 10:30N 68°01' E 015°20'0 0.0
2018-Feb-17 10:00N 68°01' E 015°20'0 0.0
2018-Feb-17 09:27N 68°01' E 015°20'0 0.0
2018-Feb-17 09:00N 68°01' E 015°20'0 0.0
2018-Feb-17 08:30N 68°01' E 015°20'0 0.0
2018-Feb-17 07:59N 68°01' E 015°20'0 0.0
2018-Feb-17 07:29N 68°01' E 015°20'0 0.0
2018-Feb-17 06:56N 68°01' E 015°20'0 0.0
2018-Feb-17 06:29N 68°01' E 015°20'0 0.0
2018-Feb-17 05:59N 68°01' E 015°20'0 0.0
2018-Feb-17 05:29N 68°01' E 015°20'0 0.0
2018-Feb-17 04:59N 68°01' E 015°20'0 0.0
2018-Feb-17 04:29N 68°01' E 015°20'0 0.0
2018-Feb-17 03:59N 68°01' E 015°20'0 0.0
2018-Feb-17 03:26N 68°01' E 015°20'0 0.0
2018-Feb-17 02:56N 68°01' E 015°20'0 0.0
2018-Feb-17 02:29N 68°01' E 015°20'0 0.0
2018-Feb-17 01:59N 68°01' E 015°20'0 0.0
2018-Feb-17 01:29N 68°01' E 015°20'0 0.0
2018-Feb-17 00:56N 68°01' E 015°20'0 0.0
2018-Feb-17 00:29N 68°01' E 015°20'0 0.0
2018-Feb-16 23:56N 68°01' E 015°20'0 0.0
2018-Feb-16 23:29N 68°01' E 015°20'0 0.0
2018-Feb-16 22:59N 68°01' E 015°20'0 0.0
2018-Feb-16 22:29N 68°01' E 015°20'0 0.0
2018-Feb-16 21:56N 68°01' E 015°20'0 0.0
2018-Feb-16 21:26N 68°01' E 015°20'0 0.0
2018-Feb-16 20:56N 68°01' E 015°20'0 0.0
2018-Feb-16 20:29N 68°01' E 015°20'0 0.0
2018-Feb-16 19:59N 68°01' E 015°20'0 0.0
2018-Feb-16 19:29N 68°01' E 015°20'0 0.0
2018-Feb-16 18:59N 68°01' E 015°20'0 0.0
2018-Feb-16 18:29N 68°01' E 015°20'0 0.0
2018-Feb-16 17:56N 68°01' E 015°20'0 0.0
2018-Feb-16 17:26N 68°01' E 015°20'0 0.0
2018-Feb-16 16:59N 68°01' E 015°20'0 0.0
2018-Feb-16 16:26N 68°01' E 015°20'0 0.0
2018-Feb-16 15:59N 68°01' E 015°20'0 0.0
2018-Feb-16 15:26N 68°01' E 015°20'0 0.0
2018-Feb-16 14:59N 68°01' E 015°20'0 0.0
2018-Feb-16 14:29N 68°01' E 015°20'0 0.0
2018-Feb-16 13:59N 68°01' E 015°20'0 0.0
2018-Feb-16 13:29N 68°01' E 015°20'0 0.0
2018-Feb-16 12:59N 68°01' E 015°20'0 0.0
2018-Feb-16 12:29N 68°01' E 015°20'0 0.0
2018-Feb-16 11:59N 68°01' E 015°20'0 0.2
2018-Feb-16 11:29N 68°01' E 015°20'0 0.0
2018-Feb-16 10:59N 68°01' E 015°20'0 0.0
2018-Feb-16 10:29N 68°01' E 015°20'0 0.0
2018-Feb-16 09:59N 68°01' E 015°20'0 0.0
2018-Feb-16 09:29N 68°01' E 015°20'0 0.0
2018-Feb-16 08:59N 68°01' E 015°20'0 0.0
2018-Feb-16 08:29N 68°01' E 015°20'0 0.0
2018-Feb-16 07:59N 68°01' E 015°20'0 0.0
2018-Feb-16 07:29N 68°01' E 015°20'0 0.0
2018-Feb-16 06:59N 68°01' E 015°20'0 0.0
2018-Feb-16 06:29N 68°01' E 015°20'0 0.0
2018-Feb-16 05:56N 68°01' E 015°20'0 0.0
2018-Feb-16 05:29N 68°01' E 015°20'0 0.0
2018-Feb-16 04:59N 68°01' E 015°20'0 0.0
2018-Feb-16 04:29N 68°01' E 015°20'0 0.0
2018-Feb-16 03:59N 68°01' E 015°20'0 0.0
2018-Feb-16 03:29N 68°01' E 015°20'0 0.0
2018-Feb-16 02:59N 68°01' E 015°20'0 0.0
2018-Feb-16 02:29N 68°01' E 015°20'0 0.0
2018-Feb-16 01:59N 68°01' E 015°20'0 0.0
2018-Feb-16 01:29N 68°01' E 015°20'0 0.0
2018-Feb-16 01:00N 68°01' E 015°20'0 0.0
2018-Feb-16 00:30N 68°01' E 015°20'0 0.0
2018-Feb-15 23:59N 68°01' E 015°20'0 0.0
2018-Feb-15 23:30N 68°01' E 015°20'0 0.0
2018-Feb-15 23:00N 68°01' E 015°20'0 0.0
2018-Feb-15 22:30N 68°01' E 015°20'0 0.0
2018-Feb-15 22:00N 68°01' E 015°20'0 0.0
2018-Feb-15 21:30N 68°01' E 015°20'0 0.0
2018-Feb-15 21:00N 68°01' E 015°20'0 0.0
2018-Feb-15 20:29N 68°01' E 015°20'0 0.0
2018-Feb-15 20:00N 68°01' E 015°20'0 0.0
2018-Feb-15 19:30N 68°01' E 015°20'0 0.2
2018-Feb-15 19:00N 68°01' E 015°20'3 6.7
2018-Feb-15 18:30N 67°58' E 015°23'3 6.2
2018-Feb-15 18:00N 67°56' E 015°30'0 0.0
2018-Feb-15 17:30N 67°56' E 015°30'0 0.0
2018-Feb-15 17:00N 67°56' E 015°30'0 0.2
2018-Feb-15 16:30N 67°56' E 015°30'0 0.0
2018-Feb-15 16:00N 67°56' E 015°30'3 5.3
2018-Feb-15 15:29N 67°57' E 015°23'3 5.7
2018-Feb-15 15:01N 67°60' E 015°21'1 2.7
2018-Feb-15 14:29N 68°01' E 015°20'0 0.0
2018-Feb-15 13:59N 68°01' E 015°20'0 0.0
2018-Feb-15 13:29N 68°01' E 015°20'0 0.0
2018-Feb-15 12:59N 68°01' E 015°20'0 0.0
2018-Feb-15 12:29N 68°01' E 015°20'0 0.0
2018-Feb-15 11:59N 68°01' E 015°20'0 0.0
2018-Feb-15 11:29N 68°01' E 015°20'0 0.0
2018-Feb-15 10:59N 68°01' E 015°20'0 0.0
2018-Feb-15 10:29N 68°01' E 015°20'0 0.0
2018-Feb-15 09:56N 68°01' E 015°20'0 0.0
2018-Feb-15 09:29N 68°01' E 015°20'0 0.0
2018-Feb-15 08:59N 68°01' E 015°20'0 0.0
2018-Feb-15 08:29N 68°01' E 015°20'0 0.0
2018-Feb-15 07:59N 68°01' E 015°20'0 0.0
2018-Feb-15 07:29N 68°01' E 015°20'0 0.0
2018-Feb-15 06:59N 68°01' E 015°20'0 0.0
2018-Feb-15 06:29N 68°01' E 015°20'0 0.0
2018-Feb-15 05:59N 68°01' E 015°20'0 0.0
2018-Feb-15 05:29N 68°01' E 015°20'0 0.0
2018-Feb-15 04:59N 68°01' E 015°20'0 0.0
2018-Feb-15 04:29N 68°01' E 015°20'0 0.0
2018-Feb-15 03:59N 68°01' E 015°20'0 0.0
2018-Feb-15 03:26N 68°01' E 015°20'0 0.0
2018-Feb-15 02:56N 68°01' E 015°20'0 0.0
2018-Feb-15 02:29N 68°01' E 015°20'0 0.0
2018-Feb-15 01:56N 68°01' E 015°20'0 0.0
2018-Feb-15 01:29N 68°01' E 015°20'0 0.0
2018-Feb-15 00:59N 68°01' E 015°20'0 0.0
2018-Feb-15 00:30N 68°01' E 015°20'0 0.0
2018-Feb-15 00:00N 68°01' E 015°20'0 0.0
2018-Feb-14 23:30N 68°01' E 015°20'0 0.0
2018-Feb-14 23:00N 68°01' E 015°20'0 0.0
2018-Feb-14 22:29N 68°01' E 015°20'0 0.0
2018-Feb-14 22:00N 68°01' E 015°20'0 0.0
2018-Feb-14 21:30N 68°01' E 015°20'0 0.0
2018-Feb-14 21:00N 68°01' E 015°20'3 5.9
2018-Feb-14 20:30N 67°58' E 015°22'4 7.0
2018-Feb-14 20:00N 67°56' E 015°30'0 0.0
2018-Feb-14 19:30N 67°56' E 015°30'0 0.0
2018-Feb-14 19:00N 67°56' E 015°30'0 0.8
2018-Feb-14 18:30N 67°57' E 015°30'4 8.7
2018-Feb-14 18:00N 67°59' E 015°21'2 3.0
2018-Feb-14 17:28N 68°01' E 015°20'0 0.0
2018-Feb-14 16:55N 68°01' E 015°20'0 0.0
2018-Feb-14 16:28N 68°01' E 015°20'0 0.0
2018-Feb-14 15:58N 68°01' E 015°20'0 0.0
2018-Feb-14 15:28N 68°01' E 015°20'0 0.0
2018-Feb-14 14:58N 68°01' E 015°20'0 0.0
2018-Feb-14 14:28N 68°01' E 015°20'0 0.0
2018-Feb-14 13:58N 68°01' E 015°20'0 0.0
2018-Feb-14 13:25N 68°01' E 015°20'0 0.0
2018-Feb-14 12:58N 68°01' E 015°20'0 0.0
2018-Feb-14 12:28N 68°01' E 015°20'0 0.0
2018-Feb-14 11:58N 68°01' E 015°20'0 0.0
2018-Feb-14 11:28N 68°01' E 015°20'0 0.0
2018-Feb-14 10:58N 68°01' E 015°20'0 0.0
2018-Feb-14 10:28N 68°01' E 015°20'0 0.0
2018-Feb-14 09:58N 68°01' E 015°20'0 0.0
2018-Feb-14 09:28N 68°01' E 015°20'0 0.0
2018-Feb-14 08:58N 68°01' E 015°20'0 0.0
2018-Feb-14 08:28N 68°01' E 015°20'0 0.0
2018-Feb-14 07:55N 68°01' E 015°20'0 0.0
2018-Feb-14 07:28N 68°01' E 015°20'0 0.0
2018-Feb-14 06:58N 68°01' E 015°20'  
Track history (hours):
 
Tides and Currents Weather Stations Pressure Air Temp Water Temp Dewpoint Dewpoint Depression Visibility Wind Speed Wind Dir Waves Ship Positions

Veidnes

Last reported at 2018-Feb-24 06:30 UTC. Time now 2018-Feb-24 06:41 UTC.
Position N 68°14' E 014°32'.

Length 51 m; draft 5 m.

Type: Other ship. MMSI: 259237000.

Date/timePositionNaut miles runAvg speedWind from/ knotsBaromVisibWave heightAir tempDewpointWater temp
2018-Feb-24 06:30N 68°14' E 014°32'0 0.0
2018-Feb-24 06:00N 68°14' E 014°32'0 0.0
2018-Feb-24 05:30N 68°14' E 014°32'0 0.0
2018-Feb-24 05:00N 68°14' E 014°32'0 0.0
2018-Feb-24 04:30N 68°14' E 014°32'0 0.0
2018-Feb-24 04:00N 68°14' E 014°32'0 0.0
2018-Feb-24 03:30N 68°14' E 014°32'0 0.0
2018-Feb-24 03:00N 68°14' E 014°32'0 0.0
2018-Feb-24 02:30N 68°14' E 014°32'0 0.0
2018-Feb-24 02:00N 68°14' E 014°32'0 0.0
2018-Feb-24 01:30N 68°14' E 014°32'0 0.0
2018-Feb-24 01:00N 68°14' E 014°32'0 0.0
2018-Feb-24 00:30N 68°14' E 014°32'0 0.0
2018-Feb-24 00:00N 68°14' E 014°32'0 0.0
2018-Feb-23 23:30N 68°14' E 014°32'0 0.0
2018-Feb-23 23:00N 68°14' E 014°32'0 0.0
2018-Feb-23 22:30N 68°14' E 014°32'0 0.0
2018-Feb-23 22:00N 68°14' E 014°32'0 0.0
2018-Feb-23 21:30N 68°14' E 014°32'0 0.0
2018-Feb-23 21:00N 68°14' E 014°32'0 0.0
2018-Feb-23 20:30N 68°14' E 014°32'0 0.0
2018-Feb-23 20:00N 68°14' E 014°32'0 0.0
2018-Feb-23 19:30N 68°14' E 014°32'0 0.0
2018-Feb-23 19:00N 68°14' E 014°32'0 0.0
2018-Feb-23 18:30N 68°14' E 014°32'0 0.0
2018-Feb-23 18:00N 68°14' E 014°32'0 0.0
2018-Feb-23 17:30N 68°14' E 014°32'0 0.0
2018-Feb-23 17:00N 68°14' E 014°32'0 0.0
2018-Feb-23 16:30N 68°14' E 014°32'0 0.0
2018-Feb-23 15:57N 68°14' E 014°32'0 0.0
2018-Feb-23 15:30N 68°14' E 014°32'0 0.0
2018-Feb-23 14:59N 68°14' E 014°32'0 0.0
2018-Feb-23 14:29N 68°14' E 014°32'0 0.0
2018-Feb-23 14:00N 68°14' E 014°32'2 3.8
2018-Feb-23 13:30N 68°12' E 014°35'611.4
2018-Feb-23 12:59N 68°09' E 014°49'511.4
2018-Feb-23 12:30N 68°06' E 015°01'611.5
2018-Feb-23 12:00N 68°03' E 015°14'3 6.3
2018-Feb-23 11:30N 68°01' E 015°20'0 0.0
2018-Feb-23 10:54N 68°01' E 015°20'0 0.0
2018-Feb-23 10:30N 68°01' E 015°20'0 0.0
2018-Feb-23 09:57N 68°01' E 015°20'0 0.0
2018-Feb-23 09:30N 68°01' E 015°20'0 0.0
2018-Feb-23 09:00N 68°01' E 015°20'0 0.0
2018-Feb-23 08:30N 68°01' E 015°20'0 0.0
2018-Feb-23 08:00N 68°01' E 015°20'0 0.0
2018-Feb-23 07:30N 68°01' E 015°20'0 0.0
2018-Feb-23 07:00N 68°01' E 015°20'0 0.0
2018-Feb-23 06:30N 68°01' E 015°20'0 0.0
2018-Feb-23 05:57N 68°01' E 015°20'0 0.0
2018-Feb-23 05:27N 68°01' E 015°20'0 0.0
2018-Feb-23 04:57N 68°01' E 015°20'0 0.0
2018-Feb-23 04:30N 68°01' E 015°20'0 0.0
2018-Feb-23 04:00N 68°01' E 015°20'0 0.0
2018-Feb-23 03:30N 68°01' E 015°20'0 0.0
2018-Feb-23 02:57N 68°01' E 015°20'0 0.0
2018-Feb-23 02:27N 68°01' E 015°20'0 0.0
2018-Feb-23 01:57N 68°01' E 015°20'0 0.0
2018-Feb-23 01:27N 68°01' E 015°20'0 0.0
2018-Feb-23 00:57N 68°01' E 015°20'0 0.0
2018-Feb-23 00:21N 68°01' E 015°20'0 0.0
2018-Feb-22 23:57N 68°01' E 015°20'0 0.0
2018-Feb-22 23:27N 68°01' E 015°20'0 0.0
2018-Feb-22 22:59N 68°01' E 015°20'0 0.0
2018-Feb-22 22:26N 68°01' E 015°20'0 0.0
2018-Feb-22 21:59N 68°01' E 015°20'0 0.0
2018-Feb-22 21:29N 68°01' E 015°20'0 0.0
2018-Feb-22 20:59N 68°01' E 015°20'0 0.0
2018-Feb-22 20:29N 68°01' E 015°20'0 0.0
2018-Feb-22 19:56N 68°01' E 015°20'0 0.0
2018-Feb-22 19:20N 68°01' E 015°20'0 0.0
2018-Feb-22 18:56N 68°01' E 015°20'1 3.3
2018-Feb-22 18:30N 67°60' E 015°21'4 8.0
2018-Feb-22 18:00N 67°57' E 015°29'1 1.3
2018-Feb-22 17:28N 67°56' E 015°30'0 0.0
2018-Feb-22 17:00N 67°56' E 015°30'0 0.3
2018-Feb-22 16:30N 67°57' E 015°31'0 0.3
2018-Feb-22 16:00N 67°57' E 015°30'4 7.0
2018-Feb-22 15:29N 67°58' E 015°22'3 5.3
2018-Feb-22 14:59N 68°01' E 015°20'0 0.0
2018-Feb-22 14:28N 68°01' E 015°20'0 0.0
2018-Feb-22 13:58N 68°01' E 015°20'0 0.0
2018-Feb-22 13:28N 68°01' E 015°20'0 0.0
2018-Feb-22 12:58N 68°01' E 015°20'0 0.0
2018-Feb-22 12:28N 68°01' E 015°20'0 0.0
2018-Feb-22 11:55N 68°01' E 015°20'0 0.0
2018-Feb-22 11:28N 68°01' E 015°20'0 0.0
2018-Feb-22 10:58N 68°01' E 015°20'0 0.0
2018-Feb-22 10:28N 68°01' E 015°20'0 0.0
2018-Feb-22 09:58N 68°01' E 015°20'0 0.0
2018-Feb-22 09:28N 68°01' E 015°20'0 0.0
2018-Feb-22 08:58N 68°01' E 015°20'0 0.0
2018-Feb-22 08:28N 68°01' E 015°20'0 0.0
2018-Feb-22 07:58N 68°01' E 015°20'0 0.0
2018-Feb-22 07:28N 68°01' E 015°20'0 0.0
2018-Feb-22 06:58N 68°01' E 015°20'0 0.0
2018-Feb-22 06:28N 68°01' E 015°20'0 0.0
2018-Feb-22 05:58N 68°01' E 015°20'0 0.0
2018-Feb-22 05:28N 68°01' E 015°20'0 0.0
2018-Feb-22 04:58N 68°01' E 015°20'0 0.0
2018-Feb-22 04:28N 68°01' E 015°20'0 0.0
2018-Feb-22 03:58N 68°01' E 015°20'0 0.0
2018-Feb-22 03:28N 68°01' E 015°20'0 0.0
2018-Feb-22 02:55N 68°01' E 015°20'0 0.0
2018-Feb-22 02:28N 68°01' E 015°20'0 0.0
2018-Feb-22 01:58N 68°01' E 015°20'0 0.0
2018-Feb-22 01:28N 68°01' E 015°20'0 0.0
2018-Feb-22 00:58N 68°01' E 015°20'0 0.0
2018-Feb-22 00:28N 68°01' E 015°20'0 0.0
2018-Feb-21 23:58N 68°01' E 015°20'0 0.0
2018-Feb-21 23:28N 68°01' E 015°20'0 0.0
2018-Feb-21 22:58N 68°01' E 015°20'0 0.0
2018-Feb-21 22:28N 68°01' E 015°20'0 0.0
2018-Feb-21 21:58N 68°01' E 015°20'0 0.0
2018-Feb-21 21:28N 68°01' E 015°20'0 0.0
2018-Feb-21 20:58N 68°01' E 015°20'0 0.0
2018-Feb-21 20:28N 68°01' E 015°20'0 0.0
2018-Feb-21 19:58N 68°01' E 015°20'0 0.0
2018-Feb-21 19:28N 68°01' E 015°20'0 0.0
2018-Feb-21 18:58N 68°01' E 015°20'0 0.4
2018-Feb-21 18:29N 68°01' E 015°20'4 8.6
2018-Feb-21 18:00N 67°57' E 015°25'2 4.5
2018-Feb-21 17:31N 67°56' E 015°30'0 0.0
2018-Feb-21 17:00N 67°56' E 015°30'0 0.0
2018-Feb-21 16:30N 67°56' E 015°30'0 0.5
2018-Feb-21 16:00N 67°57' E 015°30'3 5.8
2018-Feb-21 15:30N 67°58' E 015°23'3 6.7
2018-Feb-21 15:00N 68°01' E 015°20'0 0.0
2018-Feb-21 14:28N 68°01' E 015°20'0 0.0
2018-Feb-21 13:55N 68°01' E 015°20'0 0.0
2018-Feb-21 13:28N 68°01' E 015°20'0 0.0
2018-Feb-21 12:58N 68°01' E 015°20'0 0.0
2018-Feb-21 12:28N 68°01' E 015°20'0 0.0
2018-Feb-21 11:58N 68°01' E 015°20'0 0.0
2018-Feb-21 11:28N 68°01' E 015°20'0 0.0
2018-Feb-21 10:58N 68°01' E 015°20'0 0.0
2018-Feb-21 10:28N 68°01' E 015°20'0 0.0
2018-Feb-21 09:58N 68°01' E 015°20'0 0.0
2018-Feb-21 09:28N 68°01' E 015°20'0 0.0
2018-Feb-21 08:58N 68°01' E 015°20'0 0.0
2018-Feb-21 08:28N 68°01' E 015°20'0 0.0
2018-Feb-21 07:55N 68°01' E 015°20'0 0.0
2018-Feb-21 07:28N 68°01' E 015°20'0 0.0
2018-Feb-21 06:55N 68°01' E 015°20'0 0.0
2018-Feb-21 06:28N 68°01' E 015°20'0 0.0
2018-Feb-21 05:58N 68°01' E 015°20'0 0.0
2018-Feb-21 05:28N 68°01' E 015°20'0 0.0
2018-Feb-21 04:55N 68°01' E 015°20'0 0.0
2018-Feb-21 04:28N 68°01' E 015°20'0 0.0
2018-Feb-21 03:58N 68°01' E 015°20'0 0.0
2018-Feb-21 03:25N 68°01' E 015°20'0 0.0
2018-Feb-21 02:58N 68°01' E 015°20'0 0.0
2018-Feb-21 02:28N 68°01' E 015°20'0 0.0
2018-Feb-21 01:58N 68°01' E 015°20'0 0.0
2018-Feb-21 01:31N 68°01' E 015°20'0 0.0
2018-Feb-21 01:01N 68°01' E 015°20'0 0.0
2018-Feb-21 00:30N 68°01' E 015°20'0 0.0
2018-Feb-20 23:57N 68°01' E 015°20'0 0.0
2018-Feb-20 23:27N 68°01' E 015°20'0 0.0
2018-Feb-20 22:54N 68°01' E 015°20'0 0.0
2018-Feb-20 22:30N 68°01' E 015°20'0 0.0
2018-Feb-20 22:00N 68°01' E 015°20'0 0.0
2018-Feb-20 21:30N 68°01' E 015°20'0 0.0
2018-Feb-20 21:00N 68°01' E 015°20'0 0.0
2018-Feb-20 20:30N 68°01' E 015°20'0 0.0
2018-Feb-20 20:00N 68°01' E 015°20'0 0.0
2018-Feb-20 19:30N 68°01' E 015°20'0 0.0
2018-Feb-20 19:00N 68°01' E 015°20'2 3.9
2018-Feb-20 18:30N 67°59' E 015°21'4 7.8
2018-Feb-20 18:00N 67°57' E 015°29'0 0.8
2018-Feb-20 17:30N 67°56' E 015°30'0 0.0
2018-Feb-20 17:00N 67°56' E 015°30'0 0.0
2018-Feb-20 16:30N 67°56' E 015°30'0 0.4
2018-Feb-20 16:00N 67°57' E 015°30'3 5.0
2018-Feb-20 15:29N 67°56' E 015°24'3 6.0
2018-Feb-20 15:00N 67°55' E 015°17'2 4.1
2018-Feb-20 14:28N 67°54' E 015°11'0 0.0
2018-Feb-20 13:58N 67°54' E 015°11'0 0.0
2018-Feb-20 13:28N 67°54' E 015°11'0 0.4
2018-Feb-20 13:00N 67°54' E 015°12'4 7.8
2018-Feb-20 12:30N 67°57' E 015°20'4 8.7
2018-Feb-20 12:00N 68°01' E 015°20'0 0.2
2018-Feb-20 11:29N 68°01' E 015°20'0 0.0
2018-Feb-20 10:59N 68°01' E 015°20'0 0.0
2018-Feb-20 10:29N 68°01' E 015°20'0 0.0
2018-Feb-20 09:59N 68°01' E 015°20'0 0.0
2018-Feb-20 09:23N 68°01' E 015°20'0 0.0
2018-Feb-20 08:59N 68°01' E 015°20'0 0.0
2018-Feb-20 08:29N 68°01' E 015°20'0 0.0
2018-Feb-20 07:59N 68°01' E 015°20'0 0.0
2018-Feb-20 07:26N 68°01' E 015°20'0 0.0
2018-Feb-20 06:59N 68°01' E 015°20'0 0.0
2018-Feb-20 06:29N 68°01' E 015°20'0 0.0
2018-Feb-20 05:59N 68°01' E 015°20'0 0.0
2018-Feb-20 05:29N 68°01' E 015°20'0 0.0
2018-Feb-20 04:59N 68°01' E 015°20'0 0.0
2018-Feb-20 04:29N 68°01' E 015°20'0 0.0
2018-Feb-20 03:59N 68°01' E 015°20'0 0.0
2018-Feb-20 03:29N 68°01' E 015°20'0 0.0
2018-Feb-20 02:59N 68°01' E 015°20'0 0.0
2018-Feb-20 02:29N 68°01' E 015°20'0 0.0
2018-Feb-20 01:59N 68°01' E 015°20'0 0.0
2018-Feb-20 01:29N 68°01' E 015°20'0 0.0
2018-Feb-20 00:59N 68°01' E 015°20'0 0.0
2018-Feb-20 00:29N 68°01' E 015°20'0 0.0
2018-Feb-19 23:59N 68°01' E 015°20'0 0.0
2018-Feb-19 23:29N 68°01' E 015°20'0 0.0
2018-Feb-19 22:59N 68°01' E 015°20'0 0.0
2018-Feb-19 22:29N 68°01' E 015°20'0 0.0
2018-Feb-19 21:59N 68°01' E 015°20'0 0.0
2018-Feb-19 21:23N 68°01' E 015°20'0 0.0
2018-Feb-19 20:59N 68°01' E 015°20'0 0.0
2018-Feb-19 20:29N 68°01' E 015°20'0 0.0
2018-Feb-19 19:59N 68°01' E 015°20'0 0.0
2018-Feb-19 19:23N 68°01' E 015°20'0 0.0
2018-Feb-19 18:59N 68°01' E 015°20'0 0.0
2018-Feb-19 18:23N 68°01' E 015°20'1 2.4
2018-Feb-19 18:00N 68°00' E 015°21'4 8.0
2018-Feb-19 17:30N 67°57' E 015°27'1 2.7
2018-Feb-19 17:00N 67°56' E 015°30'0 0.0
2018-Feb-19 16:30N 67°56' E 015°30'0 0.0
2018-Feb-19 16:00N 67°56' E 015°30'3 5.6
2018-Feb-19 15:30N 67°57' E 015°23'3 6.8
2018-Feb-19 15:00N 68°00' E 015°20'1 1.3
2018-Feb-19 14:29N 68°01' E 015°20'0 0.0
2018-Feb-19 13:59N 68°01' E 015°20'0 0.0
2018-Feb-19 13:29N 68°01' E 015°20'0 0.0
2018-Feb-19 12:59N 68°01' E 015°20'0 0.0
2018-Feb-19 12:29N 68°01' E 015°20'0 0.0
2018-Feb-19 11:56N 68°01' E 015°20'0 0.0
2018-Feb-19 11:29N 68°01' E 015°20'0 0.0
2018-Feb-19 10:59N 68°01' E 015°20'0 0.0
2018-Feb-19 10:29N 68°01' E 015°20'0 0.0
2018-Feb-19 09:59N 68°01' E 015°20'0 0.0
2018-Feb-19 09:26N 68°01' E 015°20'0 0.0
2018-Feb-19 08:59N 68°01' E 015°20'0 0.0
2018-Feb-19 08:29N 68°01' E 015°20'0 0.0
2018-Feb-19 07:59N 68°01' E 015°20'0 0.0
2018-Feb-19 07:29N 68°01' E 015°20'0 0.0
2018-Feb-19 06:59N 68°01' E 015°20'0 0.0
2018-Feb-19 06:29N 68°01' E 015°20'0 0.0
2018-Feb-19 05:56N 68°01' E 015°20'0 0.0
2018-Feb-19 05:29N 68°01' E 015°20'0 0.0
2018-Feb-19 04:59N 68°01' E 015°20'0 0.0
2018-Feb-19 04:29N 68°01' E 015°20'0 0.0
2018-Feb-19 03:59N 68°01' E 015°20'0 0.0
2018-Feb-19 03:29N 68°01' E 015°20'0 0.0
2018-Feb-19 02:59N 68°01' E 015°20'0 0.0
2018-Feb-19 02:29N 68°01' E 015°20'0 0.0
2018-Feb-19 01:58N 68°01' E 015°20'0 0.0
2018-Feb-19 01:28N 68°01' E 015°20'0 0.0
2018-Feb-19 00:58N 68°01' E 015°20'0 0.0
2018-Feb-19 00:28N 68°01' E 015°20'0 0.0
2018-Feb-18 23:58N 68°01' E 015°20'0 0.0
2018-Feb-18 23:28N 68°01' E 015°20'0 0.0
2018-Feb-18 22:58N 68°01' E 015°20'0 0.0
2018-Feb-18 22:28N 68°01' E 015°20'0 0.0
2018-Feb-18 21:58N 68°01' E 015°20'0 0.0
2018-Feb-18 21:28N 68°01' E 015°20'0 0.0
2018-Feb-18 20:58N 68°01' E 015°20'0 0.0
2018-Feb-18 20:28N 68°01' E 015°20'0 0.0
2018-Feb-18 19:58N 68°01' E 015°20'0 0.0
2018-Feb-18 19:28N 68°01' E 015°20'0 0.0
2018-Feb-18 18:58N 68°01' E 015°20'0 0.0
2018-Feb-18 18:28N 68°01' E 015°20'2 3.7
2018-Feb-18 18:00N 67°59' E 015°21'4 7.3
2018-Feb-18 17:29N 67°57' E 015°28'1 1.5
2018-Feb-18 17:00N 67°56' E 015°30'0 0.0
2018-Feb-18 16:30N 67°56' E 015°30'0 0.0
2018-Feb-18 15:59N 67°56' E 015°30'3 5.2
2018-Feb-18 15:30N 67°57' E 015°24'3 6.7
2018-Feb-18 15:00N 68°00' E 015°21'1 1.3
2018-Feb-18 14:30N 68°01' E 015°20'0 0.0
2018-Feb-18 14:00N 68°01' E 015°20'0 0.0
2018-Feb-18 13:30N 68°01' E 015°20'0 0.0
2018-Feb-18 13:00N 68°01' E 015°20'0 0.0
2018-Feb-18 12:30N 68°01' E 015°20'0 0.0
2018-Feb-18 12:00N 68°01' E 015°20'0 0.0
2018-Feb-18 11:30N 68°01' E 015°20'0 0.0
2018-Feb-18 10:57N 68°01' E 015°20'0 0.0
2018-Feb-18 10:30N 68°01' E 015°20'0 0.0
2018-Feb-18 10:00N 68°01' E 015°20'0 0.0
2018-Feb-18 09:30N 68°01' E 015°20'0 0.0
2018-Feb-18 09:00N 68°01' E 015°20'0 0.0
2018-Feb-18 08:30N 68°01' E 015°20'0 0.0
2018-Feb-18 08:00N 68°01' E 015°20'0 0.0
2018-Feb-18 07:24N 68°01' E 015°20'0 0.0
2018-Feb-18 07:00N 68°01' E 015°20'0 0.0
2018-Feb-18 06:30N 68°01' E 015°20'0 0.0
2018-Feb-18 06:00N 68°01' E 015°20'0 0.0
2018-Feb-18 05:30N 68°01' E 015°20'0 0.0
2018-Feb-18 05:00N 68°01' E 015°20'0 0.0
2018-Feb-18 04:27N 68°01' E 015°20'0 0.0
2018-Feb-18 04:00N 68°01' E 015°20'0 0.0
2018-Feb-18 03:27N 68°01' E 015°20'0 0.0
2018-Feb-18 03:00N 68°01' E 015°20'0 0.0
2018-Feb-18 02:30N 68°01' E 015°20'0 0.0
2018-Feb-18 02:00N 68°01' E 015°20'0 0.0
2018-Feb-18 01:30N 68°01' E 015°20'0 0.0
2018-Feb-18 00:57N 68°01' E 015°20'0 0.0
2018-Feb-18 00:30N 68°01' E 015°20'0 0.0
2018-Feb-18 00:00N 68°01' E 015°20'0 0.0
2018-Feb-17 23:30N 68°01' E 015°20'0 0.0
2018-Feb-17 23:00N 68°01' E 015°20'0 0.0
2018-Feb-17 22:30N 68°01' E 015°20'0 0.0
2018-Feb-17 22:00N 68°01' E 015°20'0 0.0
2018-Feb-17 21:30N 68°01' E 015°20'0 0.0
2018-Feb-17 20:57N 68°01' E 015°20'0 0.0
2018-Feb-17 20:27N 68°01' E 015°20'0 0.0
2018-Feb-17 20:00N 68°01' E 015°20'0 0.0
2018-Feb-17 19:30N 68°01' E 015°20'0 0.0
2018-Feb-17 19:00N 68°01' E 015°20'0 0.0
2018-Feb-17 18:30N 68°01' E 015°20'0 0.0
2018-Feb-17 18:00N 68°01' E 015°20'0 0.0
2018-Feb-17 17:30N 68°01' E 015°20'0 0.0
2018-Feb-17 17:00N 68°01' E 015°20'0 0.0
2018-Feb-17 16:30N 68°01' E 015°20'0 0.0
2018-Feb-17 16:00N 68°01' E 015°20'0 0.0
2018-Feb-17 15:30N 68°01' E 015°20'0 0.0
2018-Feb-17 15:00N 68°01' E 015°20'0 0.0
2018-Feb-17 14:27N 68°01' E 015°20'0 0.0
2018-Feb-17 14:00N 68°01' E 015°20'0 0.0
2018-Feb-17 13:27N 68°01' E 015°20'0 0.0
2018-Feb-17 13:00N 68°01' E 015°20'0 0.0
2018-Feb-17 12:30N 68°01' E 015°20'0 0.0
2018-Feb-17 11:51N 68°01' E 015°20'0 0.0
2018-Feb-17 11:30N 68°01' E 015°20'0 0.0
2018-Feb-17 10:57N 68°01' E 015°20'0 0.0
2018-Feb-17 10:30N 68°01' E 015°20'0 0.0
2018-Feb-17 10:00N 68°01' E 015°20'0 0.0
2018-Feb-17 09:27N 68°01' E 015°20'0 0.0
2018-Feb-17 09:00N 68°01' E 015°20'0 0.0
2018-Feb-17 08:30N 68°01' E 015°20'0 0.0
2018-Feb-17 07:59N 68°01' E 015°20'0 0.0
2018-Feb-17 07:29N 68°01' E 015°20'0 0.0
2018-Feb-17 06:56N 68°01' E 015°20'0 0.0
2018-Feb-17 06:29N 68°01' E 015°20'0 0.0
2018-Feb-17 05:59N 68°01' E 015°20'0 0.0
2018-Feb-17 05:29N 68°01' E 015°20'0 0.0
2018-Feb-17 04:59N 68°01' E 015°20'0 0.0
2018-Feb-17 04:29N 68°01' E 015°20'0 0.0
2018-Feb-17 03:59N 68°01' E 015°20'0 0.0
2018-Feb-17 03:26N 68°01' E 015°20'0 0.0
2018-Feb-17 02:56N 68°01' E 015°20'0 0.0
2018-Feb-17 02:29N 68°01' E 015°20'0 0.0
2018-Feb-17 01:59N 68°01' E 015°20'0 0.0
2018-Feb-17 01:29N 68°01' E 015°20'0 0.0
2018-Feb-17 00:56N 68°01' E 015°20'0 0.0
2018-Feb-17 00:29N 68°01' E 015°20'0 0.0
2018-Feb-16 23:56N 68°01' E 015°20'0 0.0
2018-Feb-16 23:29N 68°01' E 015°20'0 0.0
2018-Feb-16 22:59N 68°01' E 015°20'0 0.0
2018-Feb-16 22:29N 68°01' E 015°20'0 0.0
2018-Feb-16 21:56N 68°01' E 015°20'0 0.0
2018-Feb-16 21:26N 68°01' E 015°20'0 0.0
2018-Feb-16 20:56N 68°01' E 015°20'0 0.0
2018-Feb-16 20:29N 68°01' E 015°20'0 0.0
2018-Feb-16 19:59N 68°01' E 015°20'0 0.0
2018-Feb-16 19:29N 68°01' E 015°20'0 0.0
2018-Feb-16 18:59N 68°01' E 015°20'0 0.0
2018-Feb-16 18:29N 68°01' E 015°20'0 0.0
2018-Feb-16 17:56N 68°01' E 015°20'0 0.0
2018-Feb-16 17:26N 68°01' E 015°20'0 0.0
2018-Feb-16 16:59N 68°01' E 015°20'0 0.0
2018-Feb-16 16:26N 68°01' E 015°20'0 0.0
2018-Feb-16 15:59N 68°01' E 015°20'0 0.0
2018-Feb-16 15:26N 68°01' E 015°20'0 0.0
2018-Feb-16 14:59N 68°01' E 015°20'0 0.0
2018-Feb-16 14:29N 68°01' E 015°20'0 0.0
2018-Feb-16 13:59N 68°01' E 015°20'0 0.0
2018-Feb-16 13:29N 68°01' E 015°20'0 0.0
2018-Feb-16 12:59N 68°01' E 015°20'0 0.0
2018-Feb-16 12:29N 68°01' E 015°20'0 0.0
2018-Feb-16 11:59N 68°01' E 015°20'0 0.2
2018-Feb-16 11:29N 68°01' E 015°20'0 0.0
2018-Feb-16 10:59N 68°01' E 015°20'0 0.0
2018-Feb-16 10:29N 68°01' E 015°20'0 0.0
2018-Feb-16 09:59N 68°01' E 015°20'0 0.0
2018-Feb-16 09:29N 68°01' E 015°20'0 0.0
2018-Feb-16 08:59N 68°01' E 015°20'0 0.0
2018-Feb-16 08:29N 68°01' E 015°20'0 0.0
2018-Feb-16 07:59N 68°01' E 015°20'0 0.0
2018-Feb-16 07:29N 68°01' E 015°20'0 0.0
2018-Feb-16 06:59N 68°01' E 015°20'0 0.0
2018-Feb-16 06:29N 68°01' E 015°20'0 0.0
2018-Feb-16 05:56N 68°01' E 015°20'0 0.0
2018-Feb-16 05:29N 68°01' E 015°20'0 0.0
2018-Feb-16 04:59N 68°01' E 015°20'0 0.0
2018-Feb-16 04:29N 68°01' E 015°20'0 0.0
2018-Feb-16 03:59N 68°01' E 015°20'0 0.0
2018-Feb-16 03:29N 68°01' E 015°20'0 0.0
2018-Feb-16 02:59N 68°01' E 015°20'0 0.0
2018-Feb-16 02:29N 68°01' E 015°20'0 0.0
2018-Feb-16 01:59N 68°01' E 015°20'0 0.0
2018-Feb-16 01:29N 68°01' E 015°20'0 0.0
2018-Feb-16 01:00N 68°01' E 015°20'0 0.0
2018-Feb-16 00:30N 68°01' E 015°20'0 0.0
2018-Feb-15 23:59N 68°01' E 015°20'0 0.0
2018-Feb-15 23:30N 68°01' E 015°20'0 0.0
2018-Feb-15 23:00N 68°01' E 015°20'0 0.0
2018-Feb-15 22:30N 68°01' E 015°20'0 0.0
2018-Feb-15 22:00N 68°01' E 015°20'0 0.0
2018-Feb-15 21:30N 68°01' E 015°20'0 0.0
2018-Feb-15 21:00N 68°01' E 015°20'0 0.0
2018-Feb-15 20:29N 68°01' E 015°20'0 0.0
2018-Feb-15 20:00N 68°01' E 015°20'0 0.0
2018-Feb-15 19:30N 68°01' E 015°20'0 0.2
2018-Feb-15 19:00N 68°01' E 015°20'3 6.7
2018-Feb-15 18:30N 67°58' E 015°23'3 6.2
2018-Feb-15 18:00N 67°56' E 015°30'0 0.0
2018-Feb-15 17:30N 67°56' E 015°30'0 0.0
2018-Feb-15 17:00N 67°56' E 015°30'0 0.2
2018-Feb-15 16:30N 67°56' E 015°30'0 0.0
2018-Feb-15 16:00N 67°56' E 015°30'3 5.3
2018-Feb-15 15:29N 67°57' E 015°23'3 5.7
2018-Feb-15 15:01N 67°60' E 015°21'1 2.7
2018-Feb-15 14:29N 68°01' E 015°20'0 0.0
2018-Feb-15 13:59N 68°01' E 015°20'0 0.0
2018-Feb-15 13:29N 68°01' E 015°20'0 0.0
2018-Feb-15 12:59N 68°01' E 015°20'0 0.0
2018-Feb-15 12:29N 68°01' E 015°20'0 0.0
2018-Feb-15 11:59N 68°01' E 015°20'0 0.0
2018-Feb-15 11:29N 68°01' E 015°20'0 0.0
2018-Feb-15 10:59N 68°01' E 015°20'0 0.0
2018-Feb-15 10:29N 68°01' E 015°20'0 0.0
2018-Feb-15 09:56N 68°01' E 015°20'0 0.0
2018-Feb-15 09:29N 68°01' E 015°20'0 0.0
2018-Feb-15 08:59N 68°01' E 015°20'0 0.0
2018-Feb-15 08:29N 68°01' E 015°20'0 0.0
2018-Feb-15 07:59N 68°01' E 015°20'0 0.0
2018-Feb-15 07:29N 68°01' E 015°20'0 0.0
2018-Feb-15 06:59N 68°01' E 015°20'0 0.0
2018-Feb-15 06:29N 68°01' E 015°20'0 0.0
2018-Feb-15 05:59N 68°01' E 015°20'0 0.0
2018-Feb-15 05:29N 68°01' E 015°20'0 0.0
2018-Feb-15 04:59N 68°01' E 015°20'0 0.0
2018-Feb-15 04:29N 68°01' E 015°20'0 0.0
2018-Feb-15 03:59N 68°01' E 015°20'0 0.0
2018-Feb-15 03:26N 68°01' E 015°20'0 0.0
2018-Feb-15 02:56N 68°01' E 015°20'0 0.0
2018-Feb-15 02:29N 68°01' E 015°20'0 0.0
2018-Feb-15 01:56N 68°01' E 015°20'0 0.0
2018-Feb-15 01:29N 68°01' E 015°20'0 0.0
2018-Feb-15 00:59N 68°01' E 015°20'0 0.0
2018-Feb-15 00:30N 68°01' E 015°20'0 0.0
2018-Feb-15 00:00N 68°01' E 015°20'0 0.0
2018-Feb-14 23:30N 68°01' E 015°20'0 0.0
2018-Feb-14 23:00N 68°01' E 015°20'0 0.0
2018-Feb-14 22:29N 68°01' E 015°20'0 0.0
2018-Feb-14 22:00N 68°01' E 015°20'0 0.0
2018-Feb-14 21:30N 68°01' E 015°20'0 0.0
2018-Feb-14 21:00N 68°01' E 015°20'3 5.9
2018-Feb-14 20:30N 67°58' E 015°22'4 7.0
2018-Feb-14 20:00N 67°56' E 015°30'0 0.0
2018-Feb-14 19:30N 67°56' E 015°30'0 0.0
2018-Feb-14 19:00N 67°56' E 015°30'0 0.8
2018-Feb-14 18:30N 67°57' E 015°30'4 8.7
2018-Feb-14 18:00N 67°59' E 015°21'2 3.0
2018-Feb-14 17:28N 68°01' E 015°20'0 0.0
2018-Feb-14 16:55N 68°01' E 015°20'0 0.0
2018-Feb-14 16:28N 68°01' E 015°20'0 0.0
2018-Feb-14 15:58N 68°01' E 015°20'0 0.0
2018-Feb-14 15:28N 68°01' E 015°20'0 0.0
2018-Feb-14 14:58N 68°01' E 015°20'0 0.0
2018-Feb-14 14:28N 68°01' E 015°20'0 0.0
2018-Feb-14 13:58N 68°01' E 015°20'0 0.0
2018-Feb-14 13:25N 68°01' E 015°20'0 0.0
2018-Feb-14 12:58N 68°01' E 015°20'0 0.0
2018-Feb-14 12:28N 68°01' E 015°20'0 0.0
2018-Feb-14 11:58N 68°01' E 015°20'0 0.0
2018-Feb-14 11:28N 68°01' E 015°20'0 0.0
2018-Feb-14 10:58N 68°01' E 015°20'0 0.0
2018-Feb-14 10:28N 68°01' E 015°20'0 0.0
2018-Feb-14 09:58N 68°01' E 015°20'0 0.0
2018-Feb-14 09:28N 68°01' E 015°20'0 0.0
2018-Feb-14 08:58N 68°01' E 015°20'0 0.0
2018-Feb-14 08:28N 68°01' E 015°20'0 0.0
2018-Feb-14 07:55N 68°01' E 015°20'0 0.0
2018-Feb-14 07:28N 68°01' E 015°20'0 0.0
2018-Feb-14 06:58N 68°01' E 015°20'  

Dump ship's entire track history